createdAt,value
2018-05-11T00:02:27.925Z,14.95
2018-05-11T00:04:56.196Z,14.92
2018-05-11T00:07:24.808Z,14.92
2018-05-11T00:09:53.806Z,14.91
2018-05-11T00:12:22.174Z,14.97
2018-05-11T00:14:50.431Z,14.94
2018-05-11T00:17:18.795Z,14.97
2018-05-11T00:19:47.125Z,15.02
2018-05-11T00:22:15.386Z,14.97
2018-05-11T00:24:43.723Z,15.00
2018-05-11T00:27:12.033Z,14.91
2018-05-11T00:29:40.298Z,14.87
2018-05-11T00:32:08.565Z,14.86
2018-05-11T00:34:37.130Z,14.81
2018-05-11T00:37:05.448Z,14.82
2018-05-11T00:39:33.717Z,14.83
2018-05-11T00:42:02.000Z,14.81
2018-05-11T00:44:30.285Z,14.83
2018-05-11T00:46:58.851Z,14.77
2018-05-11T00:49:27.331Z,14.65
2018-05-11T00:51:55.643Z,14.49
2018-05-11T00:54:23.990Z,14.38
2018-05-11T00:56:52.264Z,14.45
2018-05-11T00:59:20.543Z,14.52
2018-05-11T01:01:48.819Z,14.41
2018-05-11T01:04:17.098Z,14.37
2018-05-11T01:06:45.424Z,14.27
2018-05-11T01:09:13.693Z,14.21
2018-05-11T01:11:41.998Z,14.23
2018-05-11T01:14:10.257Z,14.26
2018-05-11T01:16:38.816Z,14.28
2018-05-11T01:19:07.074Z,14.21
2018-05-11T01:21:35.668Z,14.13
2018-05-11T01:24:03.935Z,14.09
2018-05-11T01:26:32.230Z,14.12
2018-05-11T01:29:00.553Z,14.14
2018-05-11T01:31:28.980Z,14.17
2018-05-11T01:33:57.146Z,14.22
2018-05-11T01:36:25.421Z,14.10
2018-05-11T01:38:53.710Z,14.11
2018-05-11T01:41:21.986Z,14.06
2018-05-11T01:43:50.301Z,14.00
2018-05-11T01:46:18.561Z,13.98
2018-05-11T01:48:46.815Z,13.90
2018-05-11T01:51:15.123Z,13.85
2018-05-11T01:53:43.381Z,13.76
2018-05-11T01:56:11.659Z,13.69
2018-05-11T01:58:39.915Z,13.60
2018-05-11T02:01:08.236Z,13.61
2018-05-11T02:03:36.501Z,13.59
2018-05-11T02:06:04.802Z,13.61
2018-05-11T02:08:33.976Z,13.56
2018-05-11T02:11:02.231Z,13.47
2018-05-11T02:13:30.510Z,13.44
2018-05-11T02:15:58.770Z,13.32
2018-05-11T02:18:27.051Z,13.37
2018-05-11T02:20:55.345Z,13.33
2018-05-11T02:23:23.617Z,13.31
2018-05-11T02:25:51.900Z,13.28
2018-05-11T02:28:20.249Z,13.10
2018-05-11T02:30:48.506Z,13.05
2018-05-11T02:33:16.787Z,13.13
2018-05-11T02:35:45.085Z,13.22
2018-05-11T02:38:13.406Z,13.22
2018-05-11T02:40:41.666Z,13.21
2018-05-11T02:43:09.934Z,13.14
2018-05-11T02:45:38.195Z,13.08
2018-05-11T02:48:06.477Z,12.98
2018-05-11T02:50:34.804Z,12.89
2018-05-11T02:53:03.147Z,12.86
2018-05-11T02:55:31.546Z,12.87
2018-05-11T02:57:59.878Z,12.87
2018-05-11T03:00:28.186Z,12.81
2018-05-11T03:02:56.451Z,12.74
2018-05-11T03:05:24.726Z,12.78
2018-05-11T03:07:52.996Z,12.75
2018-05-11T03:10:21.350Z,12.78
2018-05-11T03:12:53.855Z,12.78
2018-05-11T03:15:22.167Z,12.76
2018-05-11T03:17:51.146Z,12.79
2018-05-11T03:20:19.448Z,12.52
2018-05-11T03:22:47.718Z,12.48
2018-05-11T03:25:16.090Z,12.55
2018-05-11T03:27:45.416Z,12.62
2018-05-11T03:30:13.903Z,12.60
2018-05-11T03:32:42.975Z,12.51
2018-05-11T03:35:11.226Z,12.50
2018-05-11T03:37:39.503Z,12.54
2018-05-11T03:40:07.815Z,12.50
2018-05-11T03:42:36.134Z,12.52
2018-05-11T03:45:04.957Z,12.44
2018-05-11T03:47:33.290Z,12.44
2018-05-11T03:50:01.597Z,12.36
2018-05-11T03:52:29.873Z,12.39
2018-05-11T03:54:58.162Z,12.36
2018-05-11T03:57:26.541Z,12.30
2018-05-11T03:59:54.926Z,12.13
2018-05-11T04:02:35.105Z,12.12
2018-05-11T04:05:16.406Z,12.05
2018-05-11T04:07:56.449Z,12.06
2018-05-11T04:10:24.701Z,12.07
2018-05-11T04:12:53.333Z,12.05
2018-05-11T04:15:21.620Z,12.02
2018-05-11T04:17:51.139Z,11.89
2018-05-11T04:20:19.418Z,11.97
2018-05-11T04:22:47.694Z,12.01
2018-05-11T04:25:15.966Z,12.01
2018-05-11T04:27:44.251Z,12.04
2018-05-11T04:30:12.906Z,12.04
2018-05-11T04:32:41.339Z,12.11
2018-05-11T04:35:09.592Z,12.17
2018-05-11T04:37:37.833Z,12.11
2018-05-11T04:40:06.596Z,12.05
2018-05-11T04:42:34.843Z,12.10
2018-05-11T04:45:03.152Z,12.22
2018-05-11T04:47:31.485Z,12.27
2018-05-11T04:49:59.798Z,12.29
2018-05-11T04:52:28.071Z,12.32
2018-05-11T04:54:56.356Z,12.41
2018-05-11T04:57:24.602Z,12.37
2018-05-11T04:59:52.896Z,12.39
2018-05-11T05:02:21.164Z,12.36
2018-05-11T05:04:49.502Z,12.32
2018-05-11T05:07:18.093Z,12.32
2018-05-11T05:09:46.396Z,12.36
2018-05-11T05:12:14.655Z,12.34
2018-05-11T05:14:43.031Z,12.39
2018-05-11T05:17:11.294Z,12.30
2018-05-11T05:19:39.632Z,12.36
2018-05-11T05:22:07.919Z,12.39
2018-05-11T05:24:36.182Z,12.55
2018-05-11T05:27:04.534Z,12.64
2018-05-11T05:29:32.774Z,12.62
2018-05-11T05:32:01.068Z,12.59
2018-05-11T05:34:29.480Z,12.67
2018-05-11T05:36:57.761Z,12.57
2018-05-11T05:39:26.034Z,12.55
2018-05-11T05:41:54.301Z,12.59
2018-05-11T05:44:22.598Z,12.73
2018-05-11T05:46:50.867Z,12.79
2018-05-11T05:49:19.371Z,12.84
2018-05-11T05:51:47.670Z,12.93
2018-05-11T05:54:15.901Z,12.98
2018-05-11T05:56:44.254Z,12.98
2018-05-11T05:59:12.578Z,13.11
2018-05-11T06:01:40.875Z,13.18
2018-05-11T06:04:09.923Z,13.21
2018-05-11T06:06:38.209Z,13.19
2018-05-11T06:09:06.700Z,13.26
2018-05-11T06:11:35.079Z,13.45
2018-05-11T06:14:03.343Z,13.53
2018-05-11T06:16:31.763Z,13.65
2018-05-11T06:19:00.027Z,13.73
2018-05-11T06:21:28.277Z,13.83
2018-05-11T06:23:56.678Z,13.99
2018-05-11T06:26:24.950Z,13.99
2018-05-11T06:28:53.223Z,14.08
2018-05-11T06:31:21.491Z,14.12
2018-05-11T06:33:49.769Z,14.08
2018-05-11T06:36:18.084Z,14.09
2018-05-11T06:38:46.382Z,14.13
2018-05-11T06:41:14.650Z,14.23
2018-05-11T06:43:42.933Z,14.46
2018-05-11T06:46:11.220Z,14.61
2018-05-11T06:48:39.547Z,14.71
2018-05-11T06:51:07.806Z,14.80
2018-05-11T06:53:36.192Z,14.89
2018-05-11T06:56:04.463Z,15.10
2018-05-11T06:58:32.783Z,15.18
2018-05-11T07:01:01.034Z,15.30
2018-05-11T07:03:29.368Z,15.41
2018-05-11T07:05:57.743Z,15.53
2018-05-11T07:08:27.007Z,15.59
2018-05-11T07:10:55.275Z,15.63
2018-05-11T07:13:23.795Z,15.73
2018-05-11T07:15:52.080Z,15.75
2018-05-11T07:18:20.358Z,15.90
2018-05-11T07:20:48.686Z,15.99
2018-05-11T07:23:16.973Z,16.18
2018-05-11T07:25:45.388Z,16.26
2018-05-11T07:28:13.606Z,16.33
2018-05-11T07:30:41.947Z,16.47
2018-05-11T07:33:10.211Z,16.53
2018-05-11T07:35:39.448Z,16.58
2018-05-11T07:38:07.745Z,16.72
2018-05-11T07:40:36.133Z,16.83
2018-05-11T07:43:04.583Z,16.72
2018-05-11T07:45:32.970Z,16.75
2018-05-11T07:48:01.279Z,16.78
2018-05-11T07:50:29.666Z,16.57
2018-05-11T07:52:57.934Z,16.65
2018-05-11T07:55:26.243Z,16.80
2018-05-11T07:57:54.574Z,16.87
2018-05-11T08:00:22.876Z,16.91
2018-05-11T08:02:51.252Z,17.01
2018-05-11T08:05:19.490Z,17.06
2018-05-11T08:07:47.857Z,17.20
2018-05-11T08:10:16.151Z,17.33
2018-05-11T08:12:44.463Z,17.40
2018-05-11T08:15:12.783Z,17.51
2018-05-11T08:17:41.176Z,17.62
2018-05-11T08:20:09.560Z,17.90
2018-05-11T08:22:37.834Z,18.00
2018-05-11T08:25:06.137Z,18.09
2018-05-11T08:27:34.529Z,18.21
2018-05-11T08:30:02.821Z,18.20
2018-05-11T08:32:31.317Z,18.27
2018-05-11T08:34:59.720Z,18.35
2018-05-11T08:37:28.055Z,18.34
2018-05-11T08:39:56.386Z,18.24
2018-05-11T08:42:24.928Z,18.29
2018-05-11T08:44:53.225Z,18.39
2018-05-11T08:47:21.524Z,18.34
2018-05-11T08:49:49.809Z,18.28
2018-05-11T08:52:18.123Z,18.31
2018-05-11T08:54:46.531Z,18.45
2018-05-11T08:57:15.396Z,18.38
2018-05-11T08:59:43.603Z,18.58
2018-05-11T09:02:11.908Z,18.67
2018-05-11T09:04:40.215Z,18.80
2018-05-11T09:07:08.555Z,19.02
2018-05-11T09:09:36.860Z,19.01
2018-05-11T09:12:05.139Z,19.11
2018-05-11T09:14:33.473Z,19.06
2018-05-11T09:17:02.680Z,19.08
2018-05-11T09:19:30.991Z,19.02
2018-05-11T09:21:59.352Z,19.12
2018-05-11T09:24:27.627Z,19.14
2018-05-11T09:26:55.934Z,19.11
2018-05-11T09:29:24.234Z,19.07
2018-05-11T09:31:52.579Z,19.10
2018-05-11T09:34:20.795Z,19.20
2018-05-11T09:36:49.083Z,19.25
2018-05-11T09:39:17.418Z,19.16
2018-05-11T09:41:45.675Z,19.14
2018-05-11T09:44:13.978Z,19.17
2018-05-11T09:46:42.263Z,19.22
2018-05-11T09:49:10.618Z,19.22
2018-05-11T09:51:38.887Z,19.35
2018-05-11T09:54:07.192Z,19.35
2018-05-11T09:56:35.505Z,19.67
2018-05-11T09:59:03.780Z,19.99
2018-05-11T10:01:32.856Z,20.04
2018-05-11T10:04:01.193Z,20.03
2018-05-11T10:06:29.679Z,20.04
2018-05-11T10:08:57.955Z,20.10
2018-05-11T10:11:26.409Z,20.31
2018-05-11T10:13:56.474Z,20.61
2018-05-11T10:16:25.862Z,20.75
2018-05-11T10:18:54.328Z,20.72
2018-05-11T10:21:22.643Z,20.80
2018-05-11T10:23:51.084Z,20.77
2018-05-11T10:26:19.896Z,20.73
2018-05-11T10:28:48.172Z,20.56
2018-05-11T10:31:16.544Z,20.30
2018-05-11T10:33:44.808Z,20.44
2018-05-11T10:36:13.155Z,20.54
2018-05-11T10:38:41.414Z,20.59
2018-05-11T10:41:09.696Z,20.74
2018-05-11T10:43:37.999Z,20.84
2018-05-11T10:46:07.885Z,21.15
2018-05-11T10:48:37.889Z,21.24
2018-05-11T10:51:07.009Z,21.47
2018-05-11T10:53:35.374Z,21.44
2018-05-11T10:56:04.486Z,21.56
2018-05-11T10:58:32.783Z,21.53
2018-05-11T11:01:01.087Z,21.48
2018-05-11T11:03:29.507Z,21.55
2018-05-11T11:05:57.921Z,21.79
2018-05-11T11:08:26.228Z,22.20
2018-05-11T11:10:54.501Z,22.30
2018-05-11T11:13:22.817Z,22.23
2018-05-11T11:15:51.073Z,22.35
2018-05-11T11:18:19.378Z,22.23
2018-05-11T11:20:47.716Z,22.37
2018-05-11T11:23:16.073Z,22.39
2018-05-11T11:25:44.345Z,22.40
2018-05-11T11:28:12.651Z,22.40
2018-05-11T11:30:40.930Z,22.37
2018-05-11T11:33:10.096Z,22.34
2018-05-11T11:35:38.394Z,22.15
2018-05-11T11:38:06.682Z,22.12
2018-05-11T11:40:34.960Z,22.28
2018-05-11T11:43:03.279Z,22.43
2018-05-11T11:45:31.561Z,22.57
2018-05-11T11:47:59.831Z,22.84
2018-05-11T11:50:28.186Z,22.71
2018-05-11T11:52:56.459Z,22.71
2018-05-11T11:55:24.714Z,22.70
2018-05-11T11:57:53.177Z,22.36
2018-05-11T12:00:21.480Z,22.17
2018-05-11T12:02:49.827Z,22.08
2018-05-11T12:05:18.192Z,22.26
2018-05-11T12:07:46.455Z,22.44
2018-05-11T12:10:14.876Z,22.59
2018-05-11T12:12:43.163Z,22.71
2018-05-11T12:15:11.478Z,23.08
2018-05-11T12:17:39.750Z,23.37
2018-05-11T12:20:08.096Z,23.57
2018-05-11T12:22:36.426Z,23.66
2018-05-11T12:25:04.855Z,23.47
2018-05-11T12:27:33.183Z,23.34
2018-05-11T12:30:02.950Z,23.32
2018-05-11T12:32:31.229Z,23.26
2018-05-11T12:34:59.570Z,23.16
2018-05-11T12:37:27.775Z,23.03
2018-05-11T12:39:56.075Z,23.05
2018-05-11T12:42:25.877Z,23.09
2018-05-11T12:44:54.237Z,23.00
2018-05-11T12:47:23.430Z,23.08
2018-05-11T12:49:51.930Z,23.06
2018-05-11T12:52:20.210Z,23.31
2018-05-11T12:54:48.505Z,23.44
2018-05-11T12:57:16.841Z,23.45
2018-05-11T12:59:45.828Z,23.55
2018-05-11T13:02:14.134Z,23.98
2018-05-11T13:04:42.420Z,24.25
2018-05-11T13:07:10.770Z,24.64
2018-05-11T13:09:39.038Z,24.90
2018-05-11T13:12:07.355Z,24.69
2018-05-11T13:14:35.646Z,24.48
2018-05-11T13:17:03.945Z,24.10
2018-05-11T13:19:32.206Z,23.83
2018-05-11T13:22:00.527Z,23.96
2018-05-11T13:24:28.840Z,23.90
2018-05-11T13:26:57.139Z,23.88
2018-05-11T13:29:25.486Z,23.82
2018-05-11T13:31:53.826Z,23.77
2018-05-11T13:34:22.118Z,23.89
2018-05-11T13:36:50.481Z,23.92
2018-05-11T13:39:18.829Z,24.01
2018-05-11T13:41:47.117Z,24.01
2018-05-11T13:44:15.375Z,23.89
2018-05-11T13:46:43.675Z,23.94
2018-05-11T13:49:12.336Z,23.93
2018-05-11T13:51:40.628Z,23.81
2018-05-11T13:54:08.923Z,23.78
2018-05-11T13:56:39.570Z,24.00
2018-05-11T13:59:09.657Z,24.18
2018-05-11T14:01:37.909Z,24.42
2018-05-11T14:04:06.282Z,24.21
2018-05-11T14:06:34.639Z,24.13
2018-05-11T14:09:02.934Z,24.16
2018-05-11T14:11:31.198Z,24.22
2018-05-11T14:13:59.482Z,24.29
2018-05-11T14:16:27.755Z,24.57
2018-05-11T14:18:56.370Z,24.63
2018-05-11T14:21:24.719Z,24.37
2018-05-11T14:23:53.063Z,24.17
2018-05-11T14:26:21.298Z,24.17
2018-05-11T14:28:49.628Z,24.08
2018-05-11T14:31:18.739Z,24.32
2018-05-11T14:33:47.014Z,24.37
2018-05-11T14:36:15.282Z,23.90
2018-05-11T14:38:43.581Z,23.82
2018-05-11T14:41:11.841Z,23.80
2018-05-11T14:43:40.130Z,23.87
2018-05-11T14:46:08.439Z,23.88
2018-05-11T14:48:36.702Z,23.77
2018-05-11T14:51:05.026Z,23.67
2018-05-11T14:53:33.287Z,23.63
2018-05-11T14:56:01.583Z,23.74
2018-05-11T14:58:29.858Z,23.83
2018-05-11T15:00:58.141Z,23.96
2018-05-11T15:03:26.424Z,24.27
2018-05-11T15:05:54.707Z,24.61
2018-05-11T15:08:22.982Z,24.99
2018-05-11T15:10:52.007Z,24.99
2018-05-11T15:13:20.294Z,25.02
2018-05-11T15:15:48.590Z,24.87
2018-05-11T15:18:16.850Z,24.55
2018-05-11T15:20:45.138Z,24.45
2018-05-11T15:23:14.308Z,24.44
2018-05-11T15:25:43.725Z,24.68
2018-05-11T15:28:12.002Z,24.66
2018-05-11T15:30:40.355Z,24.95
2018-05-11T15:33:08.626Z,24.97
2018-05-11T15:35:36.921Z,24.97
2018-05-11T15:38:05.188Z,25.25
2018-05-11T15:40:33.613Z,25.41
2018-05-11T15:43:02.448Z,25.56
2018-05-11T15:45:30.738Z,25.51
2018-05-11T15:47:59.013Z,25.73
2018-05-11T15:50:27.919Z,25.84
2018-05-11T15:52:56.376Z,25.85
2018-05-11T15:55:25.469Z,26.14
2018-05-11T15:57:53.847Z,26.05
2018-05-11T16:00:22.958Z,26.05
2018-05-11T16:02:51.269Z,25.73
2018-05-11T16:05:19.542Z,25.33
2018-05-11T16:07:47.855Z,25.36
2018-05-11T16:10:16.137Z,25.60
2018-05-11T16:12:44.568Z,25.84
2018-05-11T16:15:12.718Z,26.15
2018-05-11T16:17:41.047Z,26.32
2018-05-11T16:20:09.347Z,26.40
2018-05-11T16:22:37.651Z,26.47
2018-05-11T16:25:05.945Z,26.21
2018-05-11T16:27:35.086Z,25.98
2018-05-11T16:30:03.370Z,25.75
2018-05-11T16:32:31.683Z,25.45
2018-05-11T16:34:59.993Z,25.27
2018-05-11T16:37:28.306Z,25.09
2018-05-11T16:39:56.597Z,25.35
2018-05-11T16:42:24.886Z,25.51
2018-05-11T16:44:53.231Z,25.68
2018-05-11T16:47:21.486Z,25.86
2018-05-11T16:49:49.812Z,25.98
2018-05-11T16:52:18.870Z,26.07
2018-05-11T16:54:47.212Z,25.90
2018-05-11T16:57:15.510Z,25.93
2018-05-11T16:59:44.215Z,26.13
2018-05-11T17:02:12.489Z,26.06
2018-05-11T17:04:40.765Z,25.89
2018-05-11T17:07:09.036Z,25.36
2018-05-11T17:09:37.327Z,25.31
2018-05-11T17:12:05.583Z,25.14
2018-05-11T17:14:34.605Z,25.09
2018-05-11T17:17:03.187Z,24.95
2018-05-11T17:19:31.485Z,24.71
2018-05-11T17:21:59.841Z,24.47
2018-05-11T17:24:28.200Z,24.32
2018-05-11T17:26:56.656Z,24.32
2018-05-11T17:29:25.009Z,24.20
2018-05-11T17:31:53.300Z,24.16
2018-05-11T17:34:21.831Z,24.12
2018-05-11T17:36:50.147Z,24.12
2018-05-11T17:39:18.970Z,24.09
2018-05-11T17:41:47.547Z,23.63
2018-05-11T17:44:15.857Z,23.77
2018-05-11T17:46:44.172Z,23.68
2018-05-11T17:49:12.430Z,23.65
2018-05-11T17:51:40.782Z,23.68
2018-05-11T17:54:09.039Z,23.61
2018-05-11T17:56:37.334Z,23.51
2018-05-11T17:59:05.592Z,23.50
2018-05-11T18:01:35.629Z,23.45
2018-05-11T18:04:03.919Z,23.40
2018-05-11T18:06:32.305Z,23.32
2018-05-11T18:09:00.535Z,23.28
2018-05-11T18:11:28.827Z,23.26
2018-05-11T18:13:57.083Z,23.30
2018-05-11T18:16:25.423Z,23.26
2018-05-11T18:18:53.713Z,23.11
2018-05-11T18:21:21.982Z,23.10
2018-05-11T18:23:50.261Z,23.13
2018-05-11T18:26:18.549Z,23.11
2018-05-11T18:28:46.847Z,23.06
2018-05-11T18:31:15.114Z,22.98
2018-05-11T18:33:43.394Z,22.94
2018-05-11T18:36:11.697Z,22.80
2018-05-11T18:38:40.004Z,22.69
2018-05-11T18:41:08.295Z,22.59
2018-05-11T18:43:36.580Z,22.49
2018-05-11T18:46:04.894Z,22.43
2018-05-11T18:48:34.014Z,22.17
2018-05-11T18:51:02.308Z,22.06
2018-05-11T18:53:30.924Z,22.09
2018-05-11T18:55:58.874Z,22.07
2018-05-11T18:58:27.190Z,21.99
2018-05-11T19:00:55.426Z,21.87
2018-05-11T19:03:23.738Z,21.64
2018-05-11T19:05:51.993Z,21.62
2018-05-11T19:08:20.319Z,21.72
2018-05-11T19:10:48.582Z,21.59
2018-05-11T19:13:16.947Z,21.49
2018-05-11T19:15:45.375Z,21.35
2018-05-11T19:18:13.656Z,21.27
2018-05-11T19:20:41.927Z,21.17
2018-05-11T19:23:10.245Z,21.10
2018-05-11T19:25:38.523Z,21.12
2018-05-11T19:28:06.840Z,21.12
2018-05-11T19:30:35.124Z,21.02
2018-05-11T19:33:03.423Z,20.92
2018-05-11T19:35:31.743Z,20.71
2018-05-11T19:38:00.003Z,20.59
2018-05-11T19:40:28.302Z,20.49
2018-05-11T19:42:56.557Z,20.36
2018-05-11T19:45:24.882Z,20.17
2018-05-11T19:47:54.235Z,20.06
2018-05-11T19:50:22.518Z,20.02
2018-05-11T19:52:51.623Z,19.96
2018-05-11T19:55:19.923Z,19.86
2018-05-11T19:57:48.206Z,19.86
2018-05-11T20:00:16.499Z,19.66
2018-05-11T20:02:44.760Z,19.53
2018-05-11T20:05:13.169Z,19.51
2018-05-11T20:07:41.464Z,19.50
2018-05-11T20:10:10.384Z,19.38
2018-05-11T20:12:38.662Z,19.23
2018-05-11T20:15:06.937Z,19.14
2018-05-11T20:17:35.237Z,19.15
2018-05-11T20:20:03.495Z,19.14
2018-05-11T20:22:31.855Z,18.99
2018-05-11T20:25:00.135Z,18.99
2018-05-11T20:27:28.430Z,18.88
2018-05-11T20:29:56.687Z,18.80
2018-05-11T20:32:25.005Z,18.75
2018-05-11T20:34:54.269Z,18.73
2018-05-11T20:37:22.583Z,18.64
2018-05-11T20:39:50.857Z,18.21
2018-05-11T20:42:19.209Z,18.41
2018-05-11T20:44:47.454Z,18.31
2018-05-11T20:47:15.743Z,18.18
2018-05-11T20:49:44.012Z,18.15
2018-05-11T20:52:12.295Z,18.21
2018-05-11T20:54:40.582Z,18.25
2018-05-11T20:57:08.892Z,18.28
2018-05-11T20:59:37.173Z,18.26
2018-05-11T21:02:05.475Z,18.26
2018-05-11T21:04:33.749Z,18.23
2018-05-11T21:07:02.010Z,18.04
2018-05-11T21:09:30.308Z,17.96
2018-05-11T21:11:58.570Z,17.95
2018-05-11T21:14:26.875Z,17.86
2018-05-11T21:16:55.215Z,17.90
2018-05-11T21:19:23.503Z,17.88
2018-05-11T21:21:51.759Z,17.82
2018-05-11T21:24:20.085Z,17.65
2018-05-11T21:26:48.355Z,17.54
2018-05-11T21:29:16.671Z,17.53
2018-05-11T21:31:44.923Z,17.37
2018-05-11T21:34:13.251Z,17.29
2018-05-11T21:36:41.518Z,17.29
2018-05-11T21:39:09.900Z,17.12
2018-05-11T21:41:38.175Z,17.08
2018-05-11T21:44:06.485Z,17.00
2018-05-11T21:46:34.741Z,16.83
2018-05-11T21:49:03.026Z,16.89
2018-05-11T21:51:31.325Z,16.86
2018-05-11T21:53:59.629Z,16.83
2018-05-11T21:56:27.915Z,16.80
2018-05-11T21:58:56.987Z,16.66
2018-05-11T22:01:25.281Z,16.69
2018-05-11T22:03:53.551Z,16.64
2018-05-11T22:06:21.849Z,16.66
2018-05-11T22:08:50.102Z,16.64
2018-05-11T22:11:18.398Z,16.67
2018-05-11T22:13:46.710Z,16.71
2018-05-11T22:16:15.016Z,16.64
2018-05-11T22:18:43.295Z,16.47
2018-05-11T22:21:11.583Z,16.62
2018-05-11T22:23:39.861Z,16.60
2018-05-11T22:26:08.143Z,16.47
2018-05-11T22:28:36.461Z,16.45
2018-05-11T22:31:04.772Z,16.49
2018-05-11T22:33:33.062Z,16.50
2018-05-11T22:36:01.397Z,16.42
2018-05-11T22:38:29.646Z,16.34
2018-05-11T22:40:58.722Z,16.41
2018-05-11T22:43:27.839Z,16.34
2018-05-11T22:45:58.554Z,16.40
2018-05-11T22:48:26.803Z,16.18
2018-05-11T22:50:55.315Z,16.06
2018-05-11T22:53:23.608Z,16.00
2018-05-11T22:55:51.870Z,15.96
2018-05-11T22:58:21.068Z,15.95
2018-05-11T23:00:49.349Z,15.98
2018-05-11T23:03:17.644Z,16.01
2018-05-11T23:05:45.926Z,15.98
2018-05-11T23:08:14.279Z,16.05
2018-05-11T23:10:42.562Z,15.97
2018-05-11T23:13:10.868Z,16.00
2018-05-11T23:15:39.122Z,16.08
2018-05-11T23:18:07.425Z,15.98
2018-05-11T23:20:35.721Z,15.89
2018-05-11T23:23:03.997Z,15.89
2018-05-11T23:25:32.263Z,15.84
2018-05-11T23:28:00.794Z,15.93
2018-05-11T23:30:29.102Z,15.76
2018-05-11T23:32:57.402Z,15.79
2018-05-11T23:35:25.659Z,15.76
2018-05-11T23:37:53.957Z,15.58
2018-05-11T23:40:22.226Z,15.59
2018-05-11T23:42:50.503Z,15.64
2018-05-11T23:45:19.061Z,15.72
2018-05-11T23:47:47.342Z,15.68
2018-05-11T23:50:15.622Z,15.68
2018-05-11T23:52:43.912Z,15.60
2018-05-11T23:55:12.199Z,15.48
2018-05-11T23:57:40.516Z,15.46
